Aviation Digital Data Service (ADDS)

Output produced by METARs form (1632 UTC 04 September 2015)
found at http://aviationweather.gov/adds/metars/
 
KPHX 041506Z 0415/0512 12005KT P6SM SCT120 SCT200 
     FM042300 17010KT P6SM VCTS FEW100CB BKN200 
     FM050300 23007KT P6SM SCT100 BKN150 
     FM050700 12006KT P6SM SCT150 BKN250